Impacts TAF Board
For situational awareness. Not to be used for flight planning purposes.
IDs:

KANB - Anniston Metro, AL, US

Issued at 1737 UTC 07 Dec 2021
Updated at 1933 UTC 07 Dec 2021
Potential Impact None Slight Moderate High
Time1853Z 07/20Z 07/21Z 07/22Z 07/23Z 08/00Z 08/01Z 08/02Z 08/03Z 08/04Z 08/05Z 08/06Z 08/07Z 08/08Z>>
Type OBS PRVL PRVL PRVL PRVL PRVL PRVL PRVL PRVL PRVL PRVL PRVL PRVL PRVL
  [PRB30]  
VIS 10 >6 >6 >6 >6 >6 >6 >6 >6 >6 >6 >6 >6 >6
  [4]  
CIG 43 50 45 45 45 45 45 22 22 22 22 22 22 7
  [2]  
Cover OVC OVC BKN BKN BKN BKN BKN OVC OVC OVC OVC OVC OVC OVC
  [OVC]  
FltCat VFR VFR VFR VFR VFR VFR VFR MVFR MVFR MVFR MVFR MVFR MVFR IFR
  [LIFR]  
WX -- -- VCSH VCSH VCSH VCSH VCSH -- -- -- -- -- -- --
  [-SHRA BR]  
WDir 30 VRB VRB VRB VRB VRB VRB VRB VRB VRB VRB VRB VRB VRB
[VRB]
WSpd 3 3 0 0 0 0 0 0 0 0 0 0 0 0
  [0]  
WGst -- -- -- -- -- -- -- -- -- -- -- -- -- --
  [--]  
WSHgt -- -- -- -- -- -- -- -- -- -- -- -- -- --
[--]
WSDir -- -- -- -- -- -- -- -- -- -- -- -- -- --
[--]
WSSpd -- -- -- -- -- -- -- -- -- -- -- -- -- --
[--]
Raw TAF
KANB 071737Z 0718/0818 VRB03KT P6SM OVC050
  FM072100 00000KT P6SM VCSH BKN045
  FM080200 00000KT P6SM OVC022
  FM080800 00000KT P6SM OVC007
  PROB30 0808/0812 4SM -SHRA BR OVC002
  FM081700 32005KT P6SM SCT008


Raw METAR
KANB 071853Z AUTO 03003KT 10SM BKN043 OVC060 08/00 A3012 RMK AO2 SLP205 T00830000
KANB 071753Z AUTO 08004KT 10SM OVC046 08/M01 A3014 RMK AO2 SLP213 T00781011 10078 20028 58021
KANB 071653Z AUTO 00000KT 10SM OVC050 07/M01 A3019 RMK AO2 SLP228 T00721006

METAR Board
Radar Display
Forecast Discussion
For situational awareness. Not to be used for flight planning purposes.